createdAt,value
2023-08-21T00:01:45.079Z,2.30
2023-08-21T00:04:13.608Z,2.00
2023-08-21T00:06:41.726Z,2.80
2023-08-21T00:11:38.568Z,3.80
2023-08-21T00:14:07.886Z,4.20
2023-08-21T00:16:36.076Z,2.40
2023-08-21T00:19:04.328Z,1.60
2023-08-21T00:24:00.669Z,2.90
2023-08-21T00:26:28.789Z,1.90
2023-08-21T00:31:24.940Z,1.60
2023-08-21T00:36:22.384Z,2.30
2023-08-21T00:38:51.197Z,2.30
2023-08-21T00:41:19.415Z,2.40
2023-08-21T00:43:48.045Z,2.00
2023-08-21T00:48:46.196Z,1.90
2023-08-21T00:51:17.729Z,3.30
2023-08-21T00:53:46.139Z,3.30
2023-08-21T00:56:14.961Z,2.90
2023-08-21T00:58:44.391Z,2.70
2023-08-21T01:01:16.259Z,23.70
2023-08-21T01:03:44.639Z,16.20
2023-08-21T01:06:13.580Z,1.90
2023-08-21T01:08:53.932Z,2.00
2023-08-21T01:11:43.319Z,3.10
2023-08-21T01:14:20.568Z,7.10
2023-08-21T01:16:52.002Z,12.00
2023-08-21T01:19:32.784Z,3.60
2023-08-21T01:22:01.904Z,2.60
2023-08-21T01:24:30.053Z,2.10
2023-08-21T01:29:26.754Z,9.30
2023-08-21T01:32:19.259Z,11.70
2023-08-21T01:37:19.043Z,3.90
2023-08-21T01:39:47.233Z,2.80
2023-08-21T01:44:47.209Z,3.70
2023-08-21T01:47:15.324Z,2.40
2023-08-21T01:52:11.452Z,3.20
2023-08-21T01:54:39.666Z,2.30
2023-08-21T01:59:35.805Z,3.00
2023-08-21T02:04:33.148Z,2.40
2023-08-21T02:07:02.068Z,2.60
2023-08-21T02:09:30.194Z,4.00
2023-08-21T02:14:26.432Z,4.30
2023-08-21T02:16:54.661Z,6.60
2023-08-21T02:19:23.072Z,7.80
2023-08-21T02:24:19.315Z,10.50
2023-08-21T02:29:15.649Z,4.20
2023-08-21T02:31:44.273Z,4.90
2023-08-21T02:36:40.413Z,6.60
2023-08-21T02:41:36.555Z,13.40
2023-08-21T02:46:34.842Z,7.60
2023-08-21T02:49:03.521Z,6.30
2023-08-21T02:51:32.056Z,6.90
2023-08-21T02:54:00.174Z,7.30
2023-08-21T02:58:57.717Z,5.90
2023-08-21T03:01:26.333Z,5.90
2023-08-21T03:03:54.452Z,4.50
2023-08-21T03:08:50.593Z,6.70
2023-08-21T03:11:20.116Z,5.90
2023-08-21T03:16:16.807Z,11.90
2023-08-21T03:19:05.250Z,5.80
2023-08-21T03:21:33.799Z,7.70
2023-08-21T03:24:04.867Z,5.50
2023-08-21T03:26:33.623Z,7.80
2023-08-21T03:29:02.350Z,9.20
2023-08-21T03:31:31.883Z,5.20
2023-08-21T03:34:00.108Z,5.60
2023-08-21T03:36:32.782Z,6.00
2023-08-21T03:39:02.755Z,6.70
2023-08-21T03:41:31.582Z,7.40
2023-08-21T03:46:27.726Z,6.10
2023-08-21T03:48:56.942Z,5.40
2023-08-21T03:51:25.162Z,6.00
2023-08-21T03:53:53.390Z,5.70
2023-08-21T03:56:22.711Z,25.40
2023-08-21T03:58:50.832Z,88.10
2023-08-21T04:01:19.064Z,70.30
2023-08-21T04:03:47.195Z,40.50
2023-08-21T04:06:15.685Z,22.50
2023-08-21T04:08:43.823Z,13.60
2023-08-21T04:11:11.930Z,22.30
2023-08-21T04:13:40.152Z,54.70
2023-08-21T04:16:09.661Z,32.80
2023-08-21T04:18:42.152Z,28.10
2023-08-21T04:21:13.839Z,17.20
2023-08-21T04:23:42.067Z,8.90
2023-08-21T04:26:10.184Z,6.40
2023-08-21T04:28:38.698Z,7.60
2023-08-21T04:31:08.147Z,5.50
2023-08-21T04:33:37.049Z,6.70
2023-08-21T04:36:05.856Z,6.90
2023-08-21T04:38:33.994Z,6.40
2023-08-21T04:41:09.566Z,5.40
2023-08-21T04:43:39.267Z,4.20
2023-08-21T04:46:08.053Z,4.60
2023-08-21T04:48:37.809Z,4.90
2023-08-21T04:51:06.029Z,5.40
2023-08-21T04:53:34.251Z,7.20
2023-08-21T04:56:02.699Z,6.00
2023-08-21T04:58:31.092Z,6.50
2023-08-21T05:01:00.743Z,4.10
2023-08-21T05:03:30.545Z,3.80
2023-08-21T05:05:58.773Z,3.50
2023-08-21T05:08:27.912Z,3.40
2023-08-21T05:11:00.141Z,4.10
2023-08-21T05:13:29.948Z,3.50
2023-08-21T05:15:59.681Z,4.40
2023-08-21T05:18:31.007Z,3.60
2023-08-21T05:20:59.531Z,3.50
2023-08-21T05:23:28.972Z,3.90
2023-08-21T05:26:01.494Z,3.50
2023-08-21T05:28:29.720Z,3.40
2023-08-21T05:30:59.264Z,3.50
2023-08-21T05:33:27.755Z,4.40
2023-08-21T05:35:58.398Z,5.40
2023-08-21T05:38:26.704Z,3.30
2023-08-21T05:40:54.826Z,3.50
2023-08-21T05:43:23.458Z,3.60
2023-08-21T05:45:51.967Z,4.10
2023-08-21T05:48:20.182Z,3.80
2023-08-21T05:50:52.830Z,3.60
2023-08-21T05:53:21.061Z,3.60
2023-08-21T05:55:49.464Z,3.20
2023-08-21T05:58:17.718Z,3.80
2023-08-21T06:00:45.886Z,3.50
2023-08-21T06:03:14.835Z,3.00
2023-08-21T06:06:02.021Z,3.60
2023-08-21T06:08:30.237Z,3.10
2023-08-21T06:10:58.456Z,3.30
2023-08-21T06:13:27.680Z,3.30
2023-08-21T06:15:56.303Z,3.00
2023-08-21T06:18:24.971Z,3.10
2023-08-21T06:20:54.936Z,3.80
2023-08-21T06:23:23.380Z,3.50
2023-08-21T06:25:51.900Z,3.00
2023-08-21T06:28:21.426Z,3.10
2023-08-21T06:30:57.394Z,5.00
2023-08-21T06:33:25.861Z,3.20
2023-08-21T06:35:54.112Z,12.60
2023-08-21T06:38:22.239Z,3.40
2023-08-21T06:40:50.448Z,3.30
2023-08-21T06:43:18.676Z,3.40
2023-08-21T06:45:48.912Z,3.60
2023-08-21T06:48:17.116Z,3.30
2023-08-21T06:50:45.245Z,3.00
2023-08-21T06:53:13.362Z,3.40
2023-08-21T06:55:41.588Z,2.60
2023-08-21T06:58:09.697Z,3.20
2023-08-21T07:00:37.843Z,3.20
2023-08-21T07:03:08.869Z,3.70
2023-08-21T07:05:38.678Z,3.40
2023-08-21T07:08:07.696Z,3.10
2023-08-21T07:10:39.338Z,3.40
2023-08-21T07:13:07.474Z,3.10
2023-08-21T07:15:35.668Z,2.80
2023-08-21T07:18:04.215Z,3.10
2023-08-21T07:20:32.431Z,3.30
2023-08-21T07:23:01.036Z,2.60
2023-08-21T07:25:32.194Z,2.90
2023-08-21T07:28:00.602Z,3.00
2023-08-21T07:30:29.194Z,3.00
2023-08-21T07:32:57.711Z,2.80
2023-08-21T07:35:26.153Z,2.90
2023-08-21T07:37:54.870Z,3.10
2023-08-21T07:40:23.093Z,3.30
2023-08-21T07:42:51.280Z,3.10
2023-08-21T07:45:19.530Z,3.40
2023-08-21T07:47:55.153Z,3.30
2023-08-21T07:50:29.521Z,3.20
2023-08-21T07:52:57.843Z,2.80
2023-08-21T07:55:26.189Z,3.10
2023-08-21T07:57:54.381Z,2.80
2023-08-21T08:00:22.602Z,2.90
2023-08-21T08:02:51.085Z,3.50
2023-08-21T08:05:19.355Z,3.90
2023-08-21T08:07:47.465Z,2.50
2023-08-21T08:10:15.582Z,2.90
2023-08-21T08:12:45.512Z,2.70
2023-08-21T08:15:13.636Z,2.70
2023-08-21T08:17:41.935Z,3.00
2023-08-21T08:20:10.918Z,2.90
2023-08-21T08:22:39.817Z,2.90
2023-08-21T08:25:08.832Z,3.00
2023-08-21T08:27:37.247Z,3.20
2023-08-21T08:30:06.064Z,2.90
2023-08-21T08:32:34.234Z,2.90
2023-08-21T08:35:02.517Z,2.90
2023-08-21T08:37:30.733Z,2.90
2023-08-21T08:39:59.046Z,3.40
2023-08-21T08:42:27.165Z,2.60
2023-08-21T08:44:55.994Z,3.20
2023-08-21T08:47:25.436Z,2.90
2023-08-21T08:49:56.846Z,2.80
2023-08-21T08:52:28.575Z,3.10
2023-08-21T08:54:59.031Z,3.60
2023-08-21T08:57:27.567Z,6.90
2023-08-21T08:59:55.853Z,3.10
2023-08-21T09:02:27.604Z,3.20
2023-08-21T09:04:55.809Z,3.30
2023-08-21T09:07:24.639Z,2.80
2023-08-21T09:09:54.270Z,3.00
2023-08-21T09:12:22.779Z,3.20
2023-08-21T09:14:51.141Z,2.70
2023-08-21T09:17:19.410Z,3.20
2023-08-21T09:19:47.741Z,3.00
2023-08-21T09:22:19.545Z,3.30
2023-08-21T09:25:10.262Z,2.90
2023-08-21T09:27:41.171Z,2.70
2023-08-21T09:30:17.388Z,2.90
2023-08-21T09:33:01.759Z,2.70
2023-08-21T09:35:34.419Z,3.20
2023-08-21T09:38:03.176Z,2.70
2023-08-21T09:40:31.300Z,2.70
2023-08-21T09:43:00.369Z,3.10
2023-08-21T09:45:30.871Z,2.70
2023-08-21T09:48:00.283Z,3.40
2023-08-21T09:50:30.697Z,2.60
2023-08-21T09:53:00.140Z,3.00
2023-08-21T09:55:31.204Z,3.00
2023-08-21T09:58:03.794Z,2.80
2023-08-21T10:00:37.332Z,3.20
2023-08-21T10:03:11.373Z,3.20
2023-08-21T10:05:41.017Z,3.10
2023-08-21T10:08:10.739Z,3.00
2023-08-21T10:10:40.358Z,3.50
2023-08-21T10:13:09.589Z,3.30
2023-08-21T10:15:39.814Z,3.00
2023-08-21T10:18:27.189Z,3.10
2023-08-21T10:20:55.427Z,2.90
2023-08-21T10:23:30.556Z,3.60
2023-08-21T10:26:06.727Z,2.90
2023-08-21T10:28:57.304Z,3.30
2023-08-21T10:31:40.789Z,3.60
2023-08-21T10:34:14.571Z,3.20
2023-08-21T10:36:46.391Z,2.90
2023-08-21T10:39:20.289Z,3.10
2023-08-21T10:42:07.981Z,3.30
2023-08-21T10:44:53.383Z,2.90
2023-08-21T10:47:27.799Z,3.10
2023-08-21T10:50:01.233Z,3.40
2023-08-21T10:52:30.483Z,2.90
2023-08-21T10:55:00.652Z,3.40
2023-08-21T10:57:30.520Z,3.40
2023-08-21T11:00:01.189Z,3.60
2023-08-21T11:02:30.666Z,3.70
2023-08-21T11:05:00.744Z,3.20
2023-08-21T11:07:29.737Z,3.60
2023-08-21T11:09:58.642Z,3.20
2023-08-21T11:12:26.866Z,3.60
2023-08-21T11:14:54.985Z,4.00
2023-08-21T11:17:24.698Z,2.80
2023-08-21T11:19:53.540Z,3.20
2023-08-21T11:22:21.751Z,3.30
2023-08-21T11:24:52.321Z,3.50
2023-08-21T11:27:23.336Z,3.80
2023-08-21T11:29:53.946Z,3.60
2023-08-21T11:32:24.729Z,3.00
2023-08-21T11:34:54.895Z,3.00
2023-08-21T11:37:27.732Z,2.80
2023-08-21T11:39:58.878Z,2.70
2023-08-21T11:42:32.308Z,2.90
2023-08-21T11:45:02.437Z,3.00
2023-08-21T11:47:35.548Z,2.80
2023-08-21T11:50:08.927Z,3.10
2023-08-21T11:52:39.846Z,3.20
2023-08-21T11:55:14.305Z,3.30
2023-08-21T11:57:53.139Z,3.30
2023-08-21T12:00:28.702Z,3.80
2023-08-21T12:03:01.454Z,3.20
2023-08-21T12:05:30.242Z,2.70
2023-08-21T12:07:58.865Z,2.90
2023-08-21T12:10:28.698Z,2.70
2023-08-21T12:12:58.009Z,2.40
2023-08-21T12:15:26.152Z,2.60
2023-08-21T12:17:54.310Z,2.80
2023-08-21T12:20:22.573Z,4.10
2023-08-21T12:22:50.796Z,3.20
2023-08-21T12:25:19.425Z,2.60
2023-08-21T12:27:52.307Z,2.80
2023-08-21T12:30:26.814Z,2.90
2023-08-21T12:32:54.950Z,2.80
2023-08-21T12:35:24.438Z,3.20
2023-08-21T12:37:57.773Z,2.90
2023-08-21T12:40:26.700Z,3.00
2023-08-21T12:42:54.831Z,2.70
2023-08-21T12:45:23.037Z,2.90
2023-08-21T12:47:51.227Z,2.80
2023-08-21T12:50:20.491Z,2.80
2023-08-21T12:52:48.605Z,3.00
2023-08-21T12:55:16.823Z,2.80
2023-08-21T12:57:45.046Z,2.90
2023-08-21T13:00:13.967Z,2.80
2023-08-21T13:02:42.450Z,3.30
2023-08-21T13:05:11.219Z,3.40
2023-08-21T13:07:39.428Z,2.60
2023-08-21T13:10:08.465Z,2.50
2023-08-21T13:12:37.740Z,2.80
2023-08-21T13:15:08.665Z,2.40
2023-08-21T13:17:37.483Z,3.20
2023-08-21T13:20:06.551Z,3.60
2023-08-21T13:22:53.437Z,3.50
2023-08-21T13:25:23.877Z,3.50
2023-08-21T13:27:52.698Z,3.60
2023-08-21T13:30:21.623Z,3.30
2023-08-21T13:32:50.057Z,3.00
2023-08-21T13:35:18.958Z,2.80
2023-08-21T13:37:47.075Z,3.60
2023-08-21T13:40:17.842Z,3.30
2023-08-21T13:42:48.374Z,3.00
2023-08-21T13:45:19.611Z,2.70
2023-08-21T13:47:50.354Z,2.90
2023-08-21T13:50:19.655Z,3.10
2023-08-21T13:52:49.348Z,3.20
2023-08-21T13:55:19.071Z,3.10
2023-08-21T13:57:47.592Z,3.00
2023-08-21T14:00:18.972Z,3.20
2023-08-21T14:02:47.535Z,3.00
2023-08-21T14:05:16.083Z,3.20
2023-08-21T14:07:44.394Z,2.90
2023-08-21T14:10:14.933Z,3.10
2023-08-21T14:12:43.443Z,2.50
2023-08-21T14:15:12.568Z,2.80
2023-08-21T14:17:41.220Z,4.40
2023-08-21T14:20:12.043Z,3.80
2023-08-21T14:22:40.253Z,2.70
2023-08-21T14:25:09.373Z,3.00
2023-08-21T14:27:37.831Z,3.90
2023-08-21T14:30:07.663Z,3.20
2023-08-21T14:32:38.229Z,4.20
2023-08-21T14:35:10.985Z,5.50
2023-08-21T14:37:40.426Z,2.90
2023-08-21T14:40:10.121Z,10.10
2023-08-21T14:42:39.645Z,10.10
2023-08-21T14:45:09.160Z,3.10
2023-08-21T14:47:39.012Z,3.00
2023-08-21T14:50:08.404Z,2.90
2023-08-21T14:52:36.820Z,3.40
2023-08-21T14:55:05.963Z,3.30
2023-08-21T14:57:34.085Z,3.30
2023-08-21T15:00:02.539Z,4.10
2023-08-21T15:02:30.852Z,3.00
2023-08-21T15:04:59.257Z,3.30
2023-08-21T15:07:27.258Z,4.00
2023-08-21T15:09:55.391Z,2.80
2023-08-21T15:12:23.416Z,3.40
2023-08-21T15:14:51.532Z,3.70
2023-08-21T15:17:20.347Z,4.00
2023-08-21T15:19:52.601Z,4.50
2023-08-21T15:22:22.493Z,4.60
2023-08-21T15:24:50.740Z,5.60
2023-08-21T15:27:18.885Z,9.00
2023-08-21T15:29:46.990Z,4.50
2023-08-21T15:32:15.042Z,6.20
2023-08-21T15:34:43.713Z,3.30
2023-08-21T15:37:12.149Z,5.00
2023-08-21T15:39:40.356Z,5.90
2023-08-21T15:42:08.495Z,8.30
2023-08-21T15:44:36.702Z,3.70
2023-08-21T15:47:23.997Z,4.70
2023-08-21T15:49:53.509Z,4.10
2023-08-21T15:52:21.836Z,7.10
2023-08-21T15:54:52.771Z,6.20
2023-08-21T15:57:20.990Z,11.00
2023-08-21T15:59:49.309Z,5.60
2023-08-21T16:02:17.930Z,13.50
2023-08-21T16:04:46.362Z,8.40
2023-08-21T16:07:14.667Z,12.40
2023-08-21T16:09:43.285Z,7.70
2023-08-21T16:12:11.410Z,13.00
2023-08-21T16:14:39.534Z,5.90
2023-08-21T16:17:08.826Z,5.40
2023-08-21T16:19:37.976Z,7.20
2023-08-21T16:22:06.392Z,5.10
2023-08-21T16:24:34.720Z,4.50
2023-08-21T16:27:03.037Z,5.10
2023-08-21T16:29:31.156Z,5.00
2023-08-21T16:31:59.338Z,4.90
2023-08-21T16:34:27.597Z,12.00
2023-08-21T16:36:55.716Z,20.90
2023-08-21T16:39:24.244Z,12.10
2023-08-21T16:41:52.461Z,18.80
2023-08-21T16:44:22.314Z,15.70
2023-08-21T16:46:50.708Z,10.00
2023-08-21T16:49:18.927Z,15.30
2023-08-21T16:51:47.251Z,19.70
2023-08-21T16:54:15.364Z,11.80
2023-08-21T16:56:43.488Z,13.50
2023-08-21T16:59:11.611Z,29.30
2023-08-21T17:01:39.873Z,26.20
2023-08-21T17:04:08.309Z,13.50
2023-08-21T17:06:36.774Z,13.10
2023-08-21T17:09:05.915Z,13.10
2023-08-21T17:11:34.120Z,12.30
2023-08-21T17:14:02.345Z,10.90
2023-08-21T17:16:30.454Z,11.50
2023-08-21T17:18:58.676Z,15.00
2023-08-21T17:21:28.917Z,18.20
2023-08-21T17:23:58.746Z,13.10
2023-08-21T17:26:26.948Z,14.00
2023-08-21T17:28:55.261Z,12.40
2023-08-21T17:31:23.671Z,13.20
2023-08-21T17:33:52.015Z,13.30
2023-08-21T17:36:20.546Z,12.90
2023-08-21T17:38:48.753Z,15.40
2023-08-21T17:41:16.873Z,17.10
2023-08-21T17:43:45.095Z,16.50
2023-08-21T17:46:13.461Z,25.60
2023-08-21T17:48:41.649Z,27.80
2023-08-21T17:51:09.954Z,28.40
2023-08-21T17:53:38.375Z,32.30
2023-08-21T17:56:06.805Z,30.50
2023-08-21T17:58:35.517Z,27.40
2023-08-21T18:01:03.774Z,36.50
2023-08-21T18:03:32.172Z,28.10
2023-08-21T18:06:01.416Z,21.00
2023-08-21T18:08:29.620Z,19.60
2023-08-21T18:10:57.826Z,17.60
2023-08-21T18:13:26.148Z,18.80
2023-08-21T18:15:54.274Z,19.20
2023-08-21T18:18:22.490Z,21.40
2023-08-21T18:20:52.408Z,29.30
2023-08-21T18:23:28.340Z,27.50
2023-08-21T18:25:57.282Z,24.50
2023-08-21T18:28:26.719Z,15.70
2023-08-21T18:30:58.986Z,15.80
2023-08-21T18:33:28.175Z,15.50
2023-08-21T18:35:56.492Z,16.90
2023-08-21T18:38:24.711Z,14.00
2023-08-21T18:40:54.042Z,10.40
2023-08-21T18:43:22.288Z,10.60
2023-08-21T18:45:52.775Z,8.80
2023-08-21T18:48:21.499Z,7.30
2023-08-21T18:50:49.823Z,9.30
2023-08-21T18:53:18.345Z,7.60
2023-08-21T18:55:48.214Z,8.90
2023-08-21T18:58:16.526Z,8.30
2023-08-21T19:00:44.717Z,11.40
2023-08-21T19:03:14.057Z,9.90
2023-08-21T19:05:42.458Z,7.60
2023-08-21T19:08:10.686Z,6.20
2023-08-21T19:10:38.901Z,8.00
2023-08-21T19:13:09.930Z,6.90
2023-08-21T19:15:38.053Z,6.80
2023-08-21T19:18:06.596Z,5.90
2023-08-21T19:20:34.993Z,6.20
2023-08-21T19:23:03.810Z,6.40
2023-08-21T19:25:33.068Z,6.20
2023-08-21T19:28:03.877Z,5.40
2023-08-21T19:30:37.220Z,5.20
2023-08-21T19:33:05.886Z,5.80
2023-08-21T19:35:37.059Z,34.90
2023-08-21T19:38:05.276Z,22.00
2023-08-21T19:40:38.961Z,10.10
2023-08-21T19:43:07.295Z,12.80
2023-08-21T19:45:35.880Z,10.50
2023-08-21T19:48:04.702Z,12.30
2023-08-21T19:50:34.285Z,11.30
2023-08-21T19:53:02.452Z,11.80
2023-08-21T19:55:30.564Z,11.30
2023-08-21T19:57:58.871Z,21.10
2023-08-21T20:00:27.191Z,16.90
2023-08-21T20:02:55.539Z,19.10
2023-08-21T20:05:23.847Z,16.10
2023-08-21T20:07:51.951Z,14.10
2023-08-21T20:10:20.086Z,12.60
2023-08-21T20:12:48.290Z,10.70
2023-08-21T20:15:16.630Z,11.50
2023-08-21T20:17:44.736Z,10.70
2023-08-21T20:20:16.043Z,12.10
2023-08-21T20:22:44.795Z,12.70
2023-08-21T20:25:13.013Z,13.60
2023-08-21T20:27:41.519Z,15.40
2023-08-21T20:30:11.583Z,14.00
2023-08-21T20:32:39.822Z,15.90
2023-08-21T20:35:08.542Z,11.70
2023-08-21T20:37:39.071Z,11.80
2023-08-21T20:40:10.390Z,9.40
2023-08-21T20:42:39.606Z,11.00
2023-08-21T20:45:10.410Z,8.40
2023-08-21T20:47:38.746Z,6.80
2023-08-21T20:50:08.054Z,9.10
2023-08-21T20:52:37.186Z,7.50
2023-08-21T20:55:06.541Z,8.20
2023-08-21T20:57:34.727Z,9.50
2023-08-21T21:00:03.246Z,7.00
2023-08-21T21:02:31.365Z,7.70
2023-08-21T21:04:59.690Z,8.30
2023-08-21T21:07:28.006Z,8.30
2023-08-21T21:09:56.114Z,7.90
2023-08-21T21:12:24.261Z,6.90
2023-08-21T21:14:52.967Z,7.80
2023-08-21T21:17:21.090Z,8.50
2023-08-21T21:19:49.208Z,6.30
2023-08-21T21:22:17.430Z,5.40
2023-08-21T21:24:45.555Z,4.90
2023-08-21T21:27:13.671Z,14.50
2023-08-21T21:29:41.895Z,5.40
2023-08-21T21:32:10.130Z,8.00
2023-08-21T21:34:38.327Z,5.40
2023-08-21T21:37:08.871Z,11.20
2023-08-21T21:39:38.292Z,5.10
2023-08-21T21:42:07.117Z,11.70
2023-08-21T21:44:35.829Z,4.80
2023-08-21T21:47:04.050Z,5.20
2023-08-21T21:49:32.181Z,5.20
2023-08-21T21:52:00.325Z,5.00
2023-08-21T21:54:28.409Z,5.00
2023-08-21T21:56:56.732Z,4.60
2023-08-21T21:59:24.855Z,4.70
2023-08-21T22:01:53.036Z,5.20
2023-08-21T22:04:21.431Z,4.90
2023-08-21T22:06:49.612Z,5.60
2023-08-21T22:09:17.730Z,4.90
2023-08-21T22:11:45.854Z,5.00
2023-08-21T22:14:13.971Z,4.40
2023-08-21T22:16:42.102Z,5.20
2023-08-21T22:19:10.240Z,4.50
2023-08-21T22:21:38.433Z,3.90
2023-08-21T22:24:06.657Z,4.60
2023-08-21T22:26:34.880Z,4.20
2023-08-21T22:29:02.994Z,4.50
2023-08-21T22:31:40.971Z,5.00
2023-08-21T22:34:10.989Z,4.40
2023-08-21T22:36:39.096Z,5.40
2023-08-21T22:39:07.518Z,4.30
2023-08-21T22:41:35.644Z,5.10
2023-08-21T22:44:03.964Z,6.70
2023-08-21T22:46:32.077Z,4.80
2023-08-21T22:49:00.199Z,5.30
2023-08-21T22:51:28.341Z,7.40
2023-08-21T22:53:56.445Z,5.30
2023-08-21T22:56:24.660Z,5.40
2023-08-21T22:58:52.801Z,5.70
2023-08-21T23:01:21.067Z,5.50
2023-08-21T23:03:49.433Z,6.10
2023-08-21T23:06:18.736Z,5.70
2023-08-21T23:08:46.867Z,5.80
2023-08-21T23:11:16.884Z,5.60
2023-08-21T23:13:45.105Z,7.60
2023-08-21T23:16:13.388Z,5.10
2023-08-21T23:18:41.646Z,6.50
2023-08-21T23:21:10.368Z,5.30
2023-08-21T23:23:38.489Z,5.70
2023-08-21T23:26:07.211Z,5.30
2023-08-21T23:28:35.432Z,10.70
2023-08-21T23:31:03.668Z,6.20
2023-08-21T23:33:32.112Z,5.30
2023-08-21T23:36:00.795Z,6.20
2023-08-21T23:38:29.935Z,6.70
2023-08-21T23:40:58.140Z,6.10
2023-08-21T23:43:26.267Z,6.10
2023-08-21T23:45:54.482Z,5.30
2023-08-21T23:48:22.693Z,5.70
2023-08-21T23:50:50.919Z,5.60
2023-08-21T23:55:47.062Z,5.00
2023-08-21T23:58:15.184Z,5.60
